createdAt,value
2022-08-01T00:00:51.647Z,2.50
2022-08-01T00:01:51.686Z,2.90
2022-08-01T00:02:51.636Z,2.60
2022-08-01T00:03:51.617Z,2.50
2022-08-01T00:04:51.637Z,2.80
2022-08-01T00:05:51.613Z,2.70
2022-08-01T00:06:51.594Z,2.80
2022-08-01T00:07:51.588Z,2.80
2022-08-01T00:08:51.580Z,2.50
2022-08-01T00:09:51.613Z,2.80
2022-08-01T00:10:51.565Z,3.00
2022-08-01T00:11:59.521Z,2.90
2022-08-01T00:12:52.559Z,2.80
2022-08-01T00:13:51.543Z,2.60
2022-08-01T00:14:51.564Z,2.70
2022-08-01T00:15:54.359Z,2.90
2022-08-01T00:16:51.558Z,2.70
2022-08-01T00:17:51.505Z,3.10
2022-08-01T00:18:51.508Z,2.50
2022-08-01T00:19:51.517Z,2.50
2022-08-01T00:20:51.492Z,2.60
2022-08-01T00:21:52.084Z,2.40
2022-08-01T00:22:52.461Z,2.30
2022-08-01T00:23:52.460Z,2.80
2022-08-01T00:24:51.480Z,2.50
2022-08-01T00:25:51.446Z,2.20
2022-08-01T00:26:51.432Z,2.60
2022-08-01T00:27:51.424Z,2.80
2022-08-01T00:28:51.414Z,2.60
2022-08-01T00:30:13.999Z,2.40
2022-08-01T00:30:52.402Z,2.90
2022-08-01T00:31:51.423Z,2.50
2022-08-01T00:32:51.385Z,3.10
2022-08-01T00:33:51.377Z,2.70
2022-08-01T00:34:51.401Z,3.30
2022-08-01T00:35:51.363Z,2.60
2022-08-01T00:36:51.352Z,2.70
2022-08-01T00:37:51.339Z,2.70
2022-08-01T00:38:51.328Z,2.90
2022-08-01T00:39:51.350Z,2.70
2022-08-01T00:40:51.311Z,3.20
2022-08-01T00:41:59.849Z,3.20
2022-08-01T00:42:52.297Z,3.10
2022-08-01T00:43:51.293Z,3.20
2022-08-01T00:44:51.312Z,3.60
2022-08-01T00:45:51.269Z,3.10
2022-08-01T00:46:51.279Z,3.00
2022-08-01T00:47:55.307Z,3.10
2022-08-01T00:48:51.307Z,2.70
2022-08-01T00:49:51.273Z,2.80
2022-08-01T00:50:51.232Z,2.80
2022-08-01T00:51:51.224Z,3.10
2022-08-01T00:52:51.456Z,2.90
2022-08-01T00:53:52.428Z,2.80
2022-08-01T00:54:51.234Z,2.60
2022-08-01T00:55:51.197Z,2.90
2022-08-01T00:56:51.190Z,2.80
2022-08-01T00:58:05.813Z,2.40
2022-08-01T00:58:52.179Z,2.80
2022-08-01T00:59:51.193Z,2.70
2022-08-01T01:00:53.061Z,2.30
2022-08-01T01:01:51.188Z,2.60
2022-08-01T01:02:51.141Z,2.60
2022-08-01T01:03:59.701Z,2.70
2022-08-01T01:04:53.156Z,2.70
2022-08-01T01:05:51.112Z,2.60
2022-08-01T01:06:51.112Z,2.40
2022-08-01T01:07:51.099Z,2.80
2022-08-01T01:08:51.101Z,2.70
2022-08-01T01:09:51.120Z,2.60
2022-08-01T01:10:51.072Z,2.60
2022-08-01T01:11:51.067Z,2.60
2022-08-01T01:12:51.058Z,3.10
2022-08-01T01:13:51.179Z,3.10
2022-08-01T01:14:51.069Z,3.00
2022-08-01T01:15:51.043Z,2.80
2022-08-01T01:16:51.020Z,2.80
2022-08-01T01:17:52.034Z,3.10
2022-08-01T01:18:52.023Z,2.60
2022-08-01T01:19:51.046Z,2.90
2022-08-01T01:20:50.999Z,3.20
2022-08-01T01:21:50.998Z,2.90
2022-08-01T01:22:50.978Z,3.00
2022-08-01T01:23:50.979Z,2.30
2022-08-01T01:24:50.998Z,2.80
2022-08-01T01:25:50.960Z,2.60
2022-08-01T01:26:50.960Z,2.80
2022-08-01T01:27:50.943Z,3.00
2022-08-01T01:28:50.937Z,2.90
2022-08-01T01:29:59.899Z,2.60
2022-08-01T01:30:51.914Z,2.70
2022-08-01T01:31:50.920Z,2.70
2022-08-01T01:32:50.972Z,2.90
2022-08-01T01:33:50.895Z,2.70
2022-08-01T01:34:50.893Z,3.00
2022-08-01T01:35:50.915Z,2.60
2022-08-01T01:36:50.868Z,2.60
2022-08-01T01:37:50.876Z,2.80
2022-08-01T01:38:50.859Z,2.80
2022-08-01T01:39:54.392Z,2.50
2022-08-01T01:40:50.874Z,2.80
2022-08-01T01:41:50.832Z,2.70
2022-08-01T01:42:50.824Z,3.00
2022-08-01T01:43:50.823Z,2.90
2022-08-01T01:44:50.808Z,2.70
2022-08-01T01:45:50.834Z,2.50
2022-08-01T01:46:50.790Z,2.70
2022-08-01T01:47:50.789Z,2.80
2022-08-01T01:48:50.804Z,2.40
2022-08-01T01:49:50.765Z,2.60
2022-08-01T01:50:50.800Z,2.50
2022-08-01T01:52:01.968Z,2.30
2022-08-01T01:52:51.742Z,2.70
2022-08-01T01:53:50.744Z,2.60
2022-08-01T01:54:50.731Z,2.30
2022-08-01T01:55:50.751Z,2.30
2022-08-01T01:56:50.716Z,2.90
2022-08-01T01:57:50.713Z,2.70
2022-08-01T01:58:50.696Z,2.70
2022-08-01T01:59:50.691Z,2.70
2022-08-01T02:00:50.711Z,2.40
2022-08-01T02:01:58.263Z,2.60
2022-08-01T02:02:51.789Z,2.40
2022-08-01T02:03:50.654Z,2.50
2022-08-01T02:04:50.656Z,3.10
2022-08-01T02:05:50.677Z,2.70
2022-08-01T02:06:50.633Z,2.70
2022-08-01T02:07:50.636Z,2.90
2022-08-01T02:08:50.623Z,2.80
2022-08-01T02:09:50.614Z,2.80
2022-08-01T02:10:50.643Z,2.80
2022-08-01T02:12:08.442Z,2.90
2022-08-01T02:12:51.582Z,2.70
2022-08-01T02:13:50.578Z,2.90
2022-08-01T02:14:50.567Z,2.40
2022-08-01T02:16:00.008Z,2.80
2022-08-01T02:16:51.560Z,3.00
2022-08-01T02:17:50.548Z,2.90
2022-08-01T02:18:50.535Z,2.80
2022-08-01T02:19:50.525Z,2.60
2022-08-01T02:20:50.549Z,2.60
2022-08-01T02:21:50.512Z,2.80
2022-08-01T02:22:50.506Z,2.60
2022-08-01T02:23:50.496Z,2.60
2022-08-01T02:24:50.488Z,2.90
2022-08-01T02:26:10.748Z,2.70
2022-08-01T02:26:51.476Z,2.90
2022-08-01T02:27:50.467Z,3.00
2022-08-01T02:28:50.460Z,2.90
2022-08-01T02:29:50.447Z,2.90
2022-08-01T02:30:50.485Z,2.90
2022-08-01T02:31:50.433Z,2.80
2022-08-01T02:32:50.429Z,2.90
2022-08-01T02:33:50.411Z,3.10
2022-08-01T02:34:51.409Z,3.00
2022-08-01T02:36:29.052Z,3.10
2022-08-01T02:36:51.399Z,3.00
2022-08-01T02:37:50.397Z,2.60
2022-08-01T02:38:50.376Z,2.60
2022-08-01T02:39:51.366Z,3.00
2022-08-01T02:40:50.390Z,3.20
2022-08-01T02:41:50.359Z,2.90
2022-08-01T02:42:50.356Z,2.80
2022-08-01T02:43:53.455Z,2.70
2022-08-01T02:44:50.325Z,2.90
2022-08-01T02:45:50.354Z,2.90
2022-08-01T02:46:50.321Z,2.60
2022-08-01T02:47:50.308Z,2.80
2022-08-01T02:48:50.372Z,2.90
2022-08-01T02:49:53.735Z,2.60
2022-08-01T02:50:50.308Z,2.70
2022-08-01T02:51:50.286Z,2.80
2022-08-01T02:52:50.259Z,2.90
2022-08-01T02:53:50.252Z,2.70
2022-08-01T02:54:50.247Z,2.60
2022-08-01T02:55:50.266Z,2.80
2022-08-01T02:56:50.226Z,2.40
2022-08-01T02:57:52.546Z,2.90
2022-08-01T02:58:51.217Z,2.80
2022-08-01T02:59:50.203Z,2.50
2022-08-01T03:00:50.224Z,2.60
2022-08-01T03:01:50.231Z,3.00
2022-08-01T03:02:50.173Z,2.80
2022-08-01T03:03:50.163Z,2.80
2022-08-01T03:04:53.951Z,2.40
2022-08-01T03:05:52.175Z,2.60
2022-08-01T03:06:50.147Z,2.60
2022-08-01T03:07:50.132Z,2.70
2022-08-01T03:08:50.126Z,2.60
2022-08-01T03:09:50.118Z,2.90
2022-08-01T03:10:50.139Z,3.00
2022-08-01T03:11:50.103Z,2.80
2022-08-01T03:12:50.098Z,2.60
2022-08-01T03:13:50.102Z,2.40
2022-08-01T03:14:50.387Z,2.70
2022-08-01T03:15:50.068Z,2.80
2022-08-01T03:16:50.109Z,2.70
2022-08-01T03:17:50.075Z,3.00
2022-08-01T03:18:50.054Z,2.90
2022-08-01T03:19:50.047Z,2.80
2022-08-01T03:20:50.039Z,3.10
2022-08-01T03:21:50.050Z,2.80
2022-08-01T03:22:50.021Z,2.70
2022-08-01T03:23:53.491Z,2.80
2022-08-01T03:24:52.016Z,2.70
2022-08-01T03:25:49.998Z,2.80
2022-08-01T03:26:50.022Z,2.90
2022-08-01T03:27:49.985Z,3.00
2022-08-01T03:28:49.974Z,2.90
2022-08-01T03:29:49.970Z,2.80
2022-08-01T03:30:49.951Z,2.90
2022-08-01T03:31:49.975Z,3.10
2022-08-01T03:32:49.940Z,3.10
2022-08-01T03:33:49.933Z,3.30
2022-08-01T03:34:49.926Z,3.00
2022-08-01T03:35:49.922Z,2.80
2022-08-01T03:36:50.135Z,2.80
2022-08-01T03:38:14.839Z,3.10
2022-08-01T03:38:51.894Z,3.00
2022-08-01T03:39:49.880Z,3.10
2022-08-01T03:40:49.876Z,3.10
2022-08-01T03:41:52.554Z,3.10
2022-08-01T03:42:50.859Z,3.50
2022-08-01T03:43:49.855Z,4.30
2022-08-01T03:44:49.851Z,3.40
2022-08-01T03:45:49.839Z,3.00
2022-08-01T03:46:49.861Z,3.00
2022-08-01T03:47:49.817Z,3.20
2022-08-01T03:48:49.860Z,3.20
2022-08-01T03:49:49.806Z,3.10
2022-08-01T03:50:49.797Z,3.10
2022-08-01T03:51:49.827Z,3.20
2022-08-01T03:52:49.777Z,3.10
2022-08-01T03:53:49.795Z,3.00
2022-08-01T03:54:49.759Z,3.30
2022-08-01T03:55:49.753Z,2.70
2022-08-01T03:56:49.772Z,2.40
2022-08-01T03:57:49.737Z,2.90
2022-08-01T03:58:50.279Z,3.10
2022-08-01T03:59:49.724Z,2.70
2022-08-01T04:00:49.717Z,2.70
2022-08-01T04:01:49.797Z,3.50
2022-08-01T04:02:49.710Z,2.80
2022-08-01T04:03:49.687Z,2.80
2022-08-01T04:04:49.677Z,3.70
2022-08-01T04:05:49.674Z,3.50
2022-08-01T04:06:49.696Z,3.20
2022-08-01T04:07:49.661Z,3.10
2022-08-01T04:08:49.658Z,3.50
2022-08-01T04:09:49.643Z,3.30
2022-08-01T04:10:50.449Z,3.30
2022-08-01T04:11:49.660Z,3.40
2022-08-01T04:12:49.622Z,3.20
2022-08-01T04:13:49.613Z,3.00
2022-08-01T04:14:49.589Z,3.20
2022-08-01T04:15:50.592Z,3.30
2022-08-01T04:16:49.594Z,3.20
2022-08-01T04:17:49.603Z,3.10
2022-08-01T04:18:49.568Z,2.90
2022-08-01T04:19:49.564Z,2.80
2022-08-01T04:20:49.568Z,3.10
2022-08-01T04:21:49.547Z,2.80
2022-08-01T04:22:49.562Z,3.10
2022-08-01T04:23:51.333Z,2.90
2022-08-01T04:24:53.315Z,2.50
2022-08-01T04:25:51.510Z,3.00
2022-08-01T04:26:49.508Z,3.00
2022-08-01T04:27:51.770Z,2.80
2022-08-01T04:28:49.486Z,3.10
2022-08-01T04:29:49.471Z,3.20
2022-08-01T04:30:49.489Z,3.60
2022-08-01T04:31:49.468Z,3.40
2022-08-01T04:32:49.479Z,3.60
2022-08-01T04:33:49.444Z,3.90
2022-08-01T04:34:49.436Z,3.90
2022-08-01T04:36:03.541Z,3.90
2022-08-01T04:36:50.407Z,4.30
2022-08-01T04:37:49.451Z,4.30
2022-08-01T04:38:49.402Z,4.10
2022-08-01T04:39:51.014Z,4.40
2022-08-01T04:40:49.402Z,4.30
2022-08-01T04:41:49.368Z,4.50
2022-08-01T04:42:49.453Z,4.60
2022-08-01T04:43:49.354Z,4.50
2022-08-01T04:44:49.347Z,4.90
2022-08-01T04:45:49.342Z,5.20
2022-08-01T04:46:49.369Z,5.00
2022-08-01T04:47:49.366Z,5.10
2022-08-01T04:48:49.367Z,5.20
2022-08-01T04:49:49.551Z,4.90
2022-08-01T04:50:49.301Z,4.90
2022-08-01T04:51:49.295Z,5.80
2022-08-01T04:52:49.314Z,5.60
2022-08-01T04:53:49.277Z,4.80
2022-08-01T04:54:49.270Z,5.00
2022-08-01T04:55:49.266Z,5.00
2022-08-01T04:56:49.255Z,4.70
2022-08-01T04:57:49.282Z,5.10
2022-08-01T04:58:49.243Z,4.70
2022-08-01T04:59:49.233Z,5.40
2022-08-01T05:00:49.295Z,5.10
2022-08-01T05:01:49.268Z,5.00
2022-08-01T05:02:50.238Z,5.50
2022-08-01T05:03:49.195Z,5.30
2022-08-01T05:04:49.261Z,5.40
2022-08-01T05:05:49.175Z,5.70
2022-08-01T05:06:49.169Z,5.40
2022-08-01T05:07:49.199Z,4.90
2022-08-01T05:08:49.183Z,4.90
2022-08-01T05:09:49.153Z,5.20
2022-08-01T05:10:49.144Z,5.40
2022-08-01T05:11:49.121Z,4.80
2022-08-01T05:12:50.157Z,4.80
2022-08-01T05:13:49.116Z,4.90
2022-08-01T05:14:49.166Z,4.90
2022-08-01T05:15:49.122Z,5.00
2022-08-01T05:16:49.094Z,4.90
2022-08-01T05:17:49.117Z,5.10
2022-08-01T05:18:49.077Z,5.40
2022-08-01T05:19:49.151Z,4.80
2022-08-01T05:20:49.081Z,4.90
2022-08-01T05:21:49.046Z,5.00
2022-08-01T05:22:49.085Z,5.30
2022-08-01T05:23:49.048Z,5.50
2022-08-01T05:24:49.190Z,5.30
2022-08-01T05:25:56.408Z,5.40
2022-08-01T05:26:50.038Z,6.00
2022-08-01T05:27:50.811Z,5.30
2022-08-01T05:28:48.994Z,5.80
2022-08-01T05:29:48.989Z,5.60
2022-08-01T05:30:48.974Z,5.50
2022-08-01T05:31:48.974Z,5.50
2022-08-01T05:32:48.992Z,5.80
2022-08-01T05:33:48.950Z,5.30
2022-08-01T05:34:48.944Z,5.50
2022-08-01T05:35:49.468Z,4.60
2022-08-01T05:36:52.910Z,5.20
2022-08-01T05:37:49.949Z,5.20
2022-08-01T05:38:48.918Z,4.90
2022-08-01T05:39:48.906Z,4.70
2022-08-01T05:40:48.890Z,5.10
2022-08-01T05:41:48.886Z,4.50
2022-08-01T05:42:48.900Z,4.80
2022-08-01T05:43:48.887Z,4.50
2022-08-01T05:44:48.860Z,4.50
2022-08-01T05:45:48.854Z,4.10
2022-08-01T05:46:48.844Z,4.50
2022-08-01T05:47:48.871Z,4.30
2022-08-01T05:48:48.889Z,5.40
2022-08-01T05:49:48.818Z,4.10
2022-08-01T05:50:48.826Z,4.10
2022-08-01T05:51:48.830Z,4.10
2022-08-01T05:52:48.834Z,4.60
2022-08-01T05:53:48.796Z,3.90
2022-08-01T05:54:48.805Z,3.60
2022-08-01T05:55:48.784Z,4.20
2022-08-01T05:56:48.759Z,4.10
2022-08-01T05:57:48.793Z,3.70
2022-08-01T05:58:48.741Z,4.00
2022-08-01T05:59:48.776Z,3.70
2022-08-01T06:00:48.724Z,3.30
2022-08-01T06:01:48.748Z,3.40
2022-08-01T06:02:48.713Z,3.60
2022-08-01T06:03:48.737Z,3.60
2022-08-01T06:04:48.685Z,3.30
2022-08-01T06:05:48.684Z,3.30
2022-08-01T06:06:48.685Z,3.20
2022-08-01T06:07:48.697Z,3.50
2022-08-01T06:08:48.697Z,3.00
2022-08-01T06:09:48.668Z,3.10
2022-08-01T06:10:48.639Z,2.80
2022-08-01T06:11:48.641Z,3.10
2022-08-01T06:12:48.637Z,3.80
2022-08-01T06:13:49.095Z,3.70
2022-08-01T06:14:48.612Z,3.80
2022-08-01T06:15:48.619Z,4.30
2022-08-01T06:16:48.593Z,4.10
2022-08-01T06:17:48.587Z,4.20
2022-08-01T06:18:48.607Z,4.70
2022-08-01T06:19:48.567Z,4.30
2022-08-01T06:20:48.560Z,4.10
2022-08-01T06:21:48.549Z,4.40
2022-08-01T06:22:51.724Z,4.40
2022-08-01T06:23:48.567Z,4.00
2022-08-01T06:24:48.526Z,4.10
2022-08-01T06:25:48.522Z,3.80
2022-08-01T06:26:48.519Z,4.00
2022-08-01T06:27:48.522Z,3.90
2022-08-01T06:28:48.523Z,3.70
2022-08-01T06:29:53.478Z,3.80
2022-08-01T06:30:49.485Z,3.50
2022-08-01T06:31:48.496Z,3.70
2022-08-01T06:32:48.471Z,3.70
2022-08-01T06:33:48.485Z,3.50
2022-08-01T06:34:48.443Z,3.50
2022-08-01T06:35:48.434Z,3.20
2022-08-01T06:36:48.454Z,3.20
2022-08-01T06:37:48.419Z,3.40
2022-08-01T06:38:48.448Z,3.70
2022-08-01T06:39:48.398Z,3.70
2022-08-01T06:40:48.399Z,2.90
2022-08-01T06:41:48.388Z,3.10
2022-08-01T06:42:48.387Z,3.80
2022-08-01T06:44:20.311Z,3.00
2022-08-01T06:44:48.375Z,3.10
2022-08-01T06:45:48.363Z,2.50
2022-08-01T06:46:48.349Z,3.00
2022-08-01T06:47:50.558Z,2.50
2022-08-01T06:48:48.435Z,2.70
2022-08-01T06:49:48.327Z,2.80
2022-08-01T06:50:48.327Z,2.30
2022-08-01T06:51:48.340Z,2.70
2022-08-01T06:52:48.304Z,2.50
2022-08-01T06:53:48.337Z,2.30
2022-08-01T06:54:48.302Z,2.90
2022-08-01T06:55:48.280Z,2.70
2022-08-01T06:56:48.267Z,2.80
2022-08-01T06:57:48.265Z,2.60
2022-08-01T06:58:48.304Z,2.50
2022-08-01T06:59:51.956Z,2.60
2022-08-01T07:00:49.336Z,2.80
2022-08-01T07:01:48.234Z,2.40
2022-08-01T07:02:48.225Z,2.70
2022-08-01T07:03:52.689Z,2.60
2022-08-01T07:04:49.249Z,2.80
2022-08-01T07:05:48.204Z,2.60
2022-08-01T07:06:48.192Z,2.40
2022-08-01T07:07:48.194Z,3.00
2022-08-01T07:08:48.176Z,2.90
2022-08-01T07:09:48.204Z,2.40
2022-08-01T07:10:48.162Z,2.40
2022-08-01T07:11:48.150Z,1.70
2022-08-01T07:12:48.151Z,1.90
2022-08-01T07:13:48.134Z,1.90
2022-08-01T07:14:48.184Z,1.70
2022-08-01T07:15:48.130Z,1.60
2022-08-01T07:16:48.113Z,1.70
2022-08-01T07:17:48.110Z,2.00
2022-08-01T07:18:48.094Z,2.20
2022-08-01T07:19:48.126Z,2.20
2022-08-01T07:20:52.771Z,1.80
2022-08-01T07:21:49.402Z,2.10
2022-08-01T07:22:48.211Z,1.50
2022-08-01T07:23:48.075Z,1.90
2022-08-01T07:24:48.080Z,1.90
2022-08-01T07:25:50.826Z,1.60
2022-08-01T07:26:54.427Z,1.90
2022-08-01T07:27:49.032Z,1.80
2022-08-01T07:28:48.010Z,1.70
2022-08-01T07:29:48.036Z,2.10
2022-08-01T07:30:47.995Z,1.90
2022-08-01T07:31:48.014Z,1.60
2022-08-01T07:32:47.984Z,1.80
2022-08-01T07:33:49.259Z,1.40
2022-08-01T07:34:48.013Z,1.50
2022-08-01T07:35:47.956Z,1.60
2022-08-01T07:36:47.970Z,1.30
2022-08-01T07:37:49.226Z,1.30
2022-08-01T07:38:47.942Z,1.30
2022-08-01T07:39:47.964Z,1.10
2022-08-01T07:40:47.935Z,1.10
2022-08-01T07:42:05.973Z,0.90
2022-08-01T07:42:48.895Z,1.20
2022-08-01T07:43:57.149Z,1.20
2022-08-01T07:44:49.924Z,1.10
2022-08-01T07:45:47.897Z,1.30
2022-08-01T07:46:47.900Z,1.30
2022-08-01T07:47:47.870Z,1.10
2022-08-01T07:48:47.869Z,1.10
2022-08-01T07:49:48.001Z,1.30
2022-08-01T07:50:47.828Z,0.90
2022-08-01T07:52:03.694Z,1.30
2022-08-01T07:52:48.815Z,1.00
2022-08-01T07:53:47.807Z,1.00
2022-08-01T07:54:52.133Z,1.30
2022-08-01T07:55:48.805Z,1.00
2022-08-01T07:56:47.794Z,1.20
2022-08-01T07:57:47.790Z,1.10
2022-08-01T07:58:47.787Z,1.20
2022-08-01T07:59:47.804Z,1.10
2022-08-01T08:00:47.755Z,1.10
2022-08-01T08:01:47.864Z,0.80
2022-08-01T08:02:47.745Z,1.10
2022-08-01T08:03:47.757Z,1.00
2022-08-01T08:04:49.281Z,1.10
2022-08-01T08:05:58.698Z,1.10
2022-08-01T08:06:48.732Z,1.00
2022-08-01T08:07:47.710Z,1.10
2022-08-01T08:08:47.704Z,1.10
2022-08-01T08:09:51.236Z,1.00
2022-08-01T08:10:47.680Z,1.10
2022-08-01T08:11:48.455Z,1.10
2022-08-01T08:12:48.667Z,1.20
2022-08-01T08:13:47.686Z,1.00
2022-08-01T08:14:47.676Z,1.20
2022-08-01T08:15:48.563Z,1.10
2022-08-01T08:16:47.646Z,1.00
2022-08-01T08:17:52.610Z,1.00
2022-08-01T08:18:48.612Z,1.00
2022-08-01T08:19:47.651Z,1.00
2022-08-01T08:20:47.594Z,1.00
2022-08-01T08:21:47.594Z,1.20
2022-08-01T08:22:47.585Z,1.00
2022-08-01T08:23:47.603Z,1.00
2022-08-01T08:24:47.599Z,1.10
2022-08-01T08:25:47.576Z,1.00
2022-08-01T08:26:47.571Z,1.10
2022-08-01T08:27:47.549Z,1.10
2022-08-01T08:28:47.542Z,1.10
2022-08-01T08:29:47.562Z,1.10
2022-08-01T08:30:47.525Z,1.00
2022-08-01T08:31:51.947Z,1.10
2022-08-01T08:32:48.515Z,1.30
2022-08-01T08:33:47.539Z,1.40
2022-08-01T08:34:47.533Z,1.40
2022-08-01T08:35:54.224Z,1.30
2022-08-01T08:36:48.487Z,1.40
2022-08-01T08:37:49.186Z,1.30
2022-08-01T08:38:47.463Z,1.30
2022-08-01T08:39:47.494Z,1.10
2022-08-01T08:40:47.440Z,1.40
2022-08-01T08:41:49.438Z,1.30
2022-08-01T08:42:47.459Z,1.40
2022-08-01T08:43:47.413Z,1.20
2022-08-01T08:44:47.447Z,1.70
2022-08-01T08:45:59.247Z,1.20
2022-08-01T08:46:48.408Z,1.40
2022-08-01T08:47:47.394Z,1.30
2022-08-01T08:48:47.526Z,1.30
2022-08-01T08:49:49.424Z,1.60
2022-08-01T08:50:47.408Z,1.30
2022-08-01T08:51:47.363Z,1.30
2022-08-01T08:52:47.356Z,1.40
2022-08-01T08:53:47.344Z,1.40
2022-08-01T08:54:47.342Z,1.20
2022-08-01T08:55:56.232Z,1.30
2022-08-01T08:56:48.313Z,1.20
2022-08-01T08:57:47.335Z,1.40
2022-08-01T08:58:47.306Z,1.60
2022-08-01T08:59:47.311Z,1.60
2022-08-01T09:00:48.324Z,1.70
2022-08-01T09:01:47.276Z,1.60
2022-08-01T09:02:47.327Z,1.50
2022-08-01T09:03:47.272Z,1.30
2022-08-01T09:04:47.267Z,1.40
2022-08-01T09:05:47.279Z,1.40
2022-08-01T09:06:47.241Z,1.50
2022-08-01T09:07:47.242Z,1.50
2022-08-01T09:08:47.231Z,1.50
2022-08-01T09:09:47.246Z,1.40
2022-08-01T09:10:47.244Z,1.30
2022-08-01T09:11:57.458Z,1.50
2022-08-01T09:12:48.199Z,1.60
2022-08-01T09:13:47.273Z,1.40
2022-08-01T09:14:47.239Z,1.80
2022-08-01T09:15:47.211Z,1.50
2022-08-01T09:16:49.020Z,1.60
2022-08-01T09:17:48.158Z,1.60
2022-08-01T09:18:53.687Z,1.40
2022-08-01T09:19:48.142Z,1.40
2022-08-01T09:20:47.157Z,1.60
2022-08-01T09:21:47.144Z,1.70
2022-08-01T09:22:47.959Z,1.50
2022-08-01T09:23:54.285Z,1.50
2022-08-01T09:24:48.139Z,1.40
2022-08-01T09:25:47.950Z,1.30
2022-08-01T09:26:47.095Z,1.80
2022-08-01T09:27:47.078Z,1.40
2022-08-01T09:28:47.976Z,1.50
2022-08-01T09:29:49.836Z,1.40
2022-08-01T09:30:48.072Z,1.50
2022-08-01T09:31:47.618Z,1.60
2022-08-01T09:32:47.037Z,1.60
2022-08-01T09:33:47.034Z,1.60
2022-08-01T09:34:47.045Z,1.40
2022-08-01T09:35:48.003Z,1.40
2022-08-01T09:36:47.029Z,1.60
2022-08-01T09:37:47.368Z,1.20
2022-08-01T09:38:51.035Z,1.70
2022-08-01T09:39:47.980Z,1.60
2022-08-01T09:40:46.998Z,1.70
2022-08-01T09:41:46.965Z,1.50
2022-08-01T09:42:46.952Z,1.70
2022-08-01T09:43:46.949Z,1.40
2022-08-01T09:44:54.643Z,1.70
2022-08-01T09:45:50.704Z,1.60
2022-08-01T09:46:46.945Z,1.70
2022-08-01T09:47:46.941Z,1.50
2022-08-01T09:48:49.330Z,1.70
2022-08-01T09:49:52.109Z,1.80
2022-08-01T09:50:47.921Z,1.60
2022-08-01T09:51:59.529Z,1.80
2022-08-01T09:52:47.881Z,1.70
2022-08-01T09:53:51.442Z,1.80
2022-08-01T09:54:47.872Z,2.00
2022-08-01T09:55:46.889Z,1.80
2022-08-01T09:56:46.850Z,1.80
2022-08-01T09:57:46.861Z,2.00
2022-08-01T09:58:46.835Z,2.10
2022-08-01T09:59:58.247Z,2.00
2022-08-01T10:00:48.853Z,1.90
2022-08-01T10:01:46.819Z,2.10
2022-08-01T10:02:46.808Z,2.20
2022-08-01T10:03:46.867Z,2.10
2022-08-01T10:04:46.794Z,2.20
2022-08-01T10:05:49.940Z,2.40
2022-08-01T10:06:46.785Z,2.00
2022-08-01T10:07:46.779Z,2.00
2022-08-01T10:08:46.755Z,1.90
2022-08-01T10:09:46.761Z,2.20
2022-08-01T10:10:46.740Z,2.00
2022-08-01T10:11:46.754Z,2.10
2022-08-01T10:12:47.711Z,2.00
2022-08-01T10:13:46.715Z,1.80
2022-08-01T10:14:46.888Z,1.80
2022-08-01T10:15:46.697Z,1.80
2022-08-01T10:16:46.751Z,2.00
2022-08-01T10:17:50.274Z,1.90
2022-08-01T10:18:46.680Z,1.90
2022-08-01T10:19:46.693Z,2.10
2022-08-01T10:20:46.670Z,1.80
2022-08-01T10:21:57.744Z,1.80
2022-08-01T10:22:47.648Z,2.00
2022-08-01T10:23:46.637Z,1.80
2022-08-01T10:24:46.636Z,1.80
2022-08-01T10:25:47.326Z,1.90
2022-08-01T10:26:46.662Z,2.00
2022-08-01T10:27:46.612Z,2.10
2022-08-01T10:28:46.619Z,1.90
2022-08-01T10:30:05.565Z,2.10
2022-08-01T10:30:48.708Z,2.00
2022-08-01T10:31:50.574Z,2.20
2022-08-01T10:32:50.535Z,1.80
2022-08-01T10:33:51.637Z,1.80
2022-08-01T10:34:47.585Z,1.70
2022-08-01T10:35:48.175Z,1.80
2022-08-01T10:36:47.584Z,1.90
2022-08-01T10:37:52.205Z,2.00
2022-08-01T10:38:47.543Z,1.80
2022-08-01T10:39:47.004Z,1.60
2022-08-01T10:40:47.537Z,1.90
2022-08-01T10:41:46.550Z,1.90
2022-08-01T10:42:46.533Z,1.70
2022-08-01T10:43:47.098Z,1.70
2022-08-01T10:44:46.494Z,1.80
2022-08-01T10:45:46.498Z,1.80
2022-08-01T10:46:46.535Z,1.70
2022-08-01T10:47:50.731Z,1.30
2022-08-01T10:48:46.469Z,1.70
2022-08-01T10:49:46.471Z,1.50
2022-08-01T10:50:48.433Z,1.50
2022-08-01T10:51:52.358Z,1.40
2022-08-01T10:52:47.438Z,1.80
2022-08-01T10:53:46.437Z,1.80
2022-08-01T10:54:52.499Z,1.60
2022-08-01T10:55:47.424Z,1.60
2022-08-01T10:56:46.465Z,1.70
2022-08-01T10:57:52.673Z,1.70
2022-08-01T10:58:47.403Z,1.70
2022-08-01T10:59:50.726Z,1.80
2022-08-01T11:00:47.388Z,1.80
2022-08-01T11:01:46.427Z,1.90
2022-08-01T11:02:46.374Z,1.70
2022-08-01T11:03:57.057Z,1.70
2022-08-01T11:04:48.359Z,1.60
2022-08-01T11:05:46.353Z,1.70
2022-08-01T11:06:46.374Z,1.70
2022-08-01T11:07:46.361Z,1.70
2022-08-01T11:08:46.335Z,1.40
2022-08-01T11:09:51.354Z,1.70
2022-08-01T11:10:48.322Z,1.80
2022-08-01T11:11:46.350Z,1.80
2022-08-01T11:12:46.314Z,1.70
2022-08-01T11:13:46.293Z,1.60
2022-08-01T11:14:55.743Z,1.70
2022-08-01T11:15:50.520Z,1.80
2022-08-01T11:16:46.313Z,1.70
2022-08-01T11:17:46.296Z,1.90
2022-08-01T11:18:46.280Z,2.30
2022-08-01T11:19:46.270Z,1.40
2022-08-01T11:20:46.255Z,1.40
2022-08-01T11:21:58.127Z,1.70
2022-08-01T11:22:47.246Z,1.50
2022-08-01T11:23:46.239Z,1.50
2022-08-01T11:24:46.247Z,1.50
2022-08-01T11:26:05.441Z,1.50
2022-08-01T11:26:47.241Z,1.70
2022-08-01T11:27:46.206Z,1.50
2022-08-01T11:29:11.009Z,1.60
2022-08-01T11:29:48.195Z,1.60
2022-08-01T11:30:46.187Z,1.80
2022-08-01T11:31:46.223Z,1.80
2022-08-01T11:33:06.644Z,2.00
2022-08-01T11:33:48.176Z,1.80
2022-08-01T11:34:46.183Z,1.70
2022-08-01T11:35:46.149Z,1.70
2022-08-01T11:37:01.415Z,1.70
2022-08-01T11:37:48.171Z,1.70
2022-08-01T11:38:46.131Z,1.70
2022-08-01T11:39:46.131Z,1.70
2022-08-01T11:40:46.118Z,1.80
2022-08-01T11:41:46.114Z,1.80
2022-08-01T11:42:46.126Z,1.90
2022-08-01T11:43:46.091Z,1.60
2022-08-01T11:44:46.108Z,1.60
2022-08-01T11:45:46.077Z,1.60
2022-08-01T11:46:46.084Z,1.80
2022-08-01T11:47:46.115Z,1.50
2022-08-01T11:48:46.057Z,2.00
2022-08-01T11:49:49.372Z,1.70
2022-08-01T11:50:46.043Z,1.80
2022-08-01T11:51:46.033Z,1.80
2022-08-01T11:52:46.070Z,1.70
2022-08-01T11:53:46.030Z,1.50
2022-08-01T11:54:46.039Z,2.00
2022-08-01T11:55:51.155Z,1.60
2022-08-01T11:56:48.065Z,1.60
2022-08-01T11:57:46.044Z,1.40
2022-08-01T11:58:46.001Z,1.80
2022-08-01T11:59:45.992Z,1.70
2022-08-01T12:00:47.127Z,1.70
2022-08-01T12:01:45.969Z,2.00
2022-08-01T12:02:46.246Z,1.60
2022-08-01T12:03:46.060Z,1.80
2022-08-01T12:04:45.968Z,1.40
2022-08-01T12:05:45.940Z,1.90
2022-08-01T12:06:45.939Z,1.50
2022-08-01T12:07:46.982Z,1.50
2022-08-01T12:08:45.930Z,1.70
2022-08-01T12:09:45.951Z,1.80
2022-08-01T12:10:47.257Z,1.70
2022-08-01T12:11:45.905Z,1.90
2022-08-01T12:12:45.925Z,1.80
2022-08-01T12:13:45.899Z,1.90
2022-08-01T12:14:45.887Z,1.80
2022-08-01T12:15:45.883Z,2.00
2022-08-01T12:16:45.878Z,1.80
2022-08-01T12:17:57.563Z,1.90
2022-08-01T12:18:46.862Z,1.80
2022-08-01T12:19:45.872Z,1.80
2022-08-01T12:20:56.172Z,2.00
2022-08-01T12:21:47.840Z,2.10
2022-08-01T12:22:45.858Z,1.90
2022-08-01T12:23:45.824Z,1.90
2022-08-01T12:24:45.814Z,1.80
2022-08-01T12:25:45.803Z,1.90
2022-08-01T12:26:45.795Z,1.80
2022-08-01T12:27:45.837Z,1.70
2022-08-01T12:28:45.791Z,1.80
2022-08-01T12:29:45.804Z,1.70
2022-08-01T12:30:45.780Z,1.90
2022-08-01T12:31:45.766Z,1.70
2022-08-01T12:32:45.788Z,1.60
2022-08-01T12:33:45.750Z,1.60
2022-08-01T12:34:45.804Z,1.40
2022-08-01T12:35:45.739Z,1.80
2022-08-01T12:36:45.728Z,1.50
2022-08-01T12:37:45.756Z,1.60
2022-08-01T12:38:45.714Z,1.90
2022-08-01T12:39:45.732Z,1.90
2022-08-01T12:40:46.009Z,1.60
2022-08-01T12:41:45.695Z,1.60
2022-08-01T12:42:45.714Z,1.80
2022-08-01T12:43:45.679Z,2.00
2022-08-01T12:45:17.575Z,2.10
2022-08-01T12:45:56.737Z,1.70
2022-08-01T12:46:46.647Z,1.70
2022-08-01T12:47:45.677Z,1.90
2022-08-01T12:48:45.673Z,1.70
2022-08-01T12:49:45.638Z,2.00
2022-08-01T12:50:45.633Z,1.90
2022-08-01T12:51:45.636Z,1.80
2022-08-01T12:52:46.651Z,1.90
2022-08-01T12:53:45.603Z,2.00
2022-08-01T12:54:45.605Z,1.70
2022-08-01T12:55:58.350Z,2.20
2022-08-01T12:56:46.598Z,2.10
2022-08-01T12:57:45.619Z,2.20
2022-08-01T12:58:45.572Z,1.90
2022-08-01T12:59:45.576Z,1.90
2022-08-01T13:00:45.704Z,2.20
2022-08-01T13:01:45.587Z,2.10
2022-08-01T13:02:45.588Z,2.20
2022-08-01T13:03:45.542Z,2.10
2022-08-01T13:04:46.994Z,2.20
2022-08-01T13:05:46.536Z,2.00
2022-08-01T13:06:45.515Z,2.30
2022-08-01T13:07:46.144Z,2.30
2022-08-01T13:08:46.605Z,2.50
2022-08-01T13:09:45.501Z,2.50
2022-08-01T13:10:45.492Z,2.30
2022-08-01T13:11:56.274Z,2.30
2022-08-01T13:12:46.468Z,2.50
2022-08-01T13:13:45.493Z,2.50
2022-08-01T13:14:45.455Z,2.20
2022-08-01T13:15:45.460Z,2.30
2022-08-01T13:16:56.889Z,2.40
2022-08-01T13:17:47.445Z,2.30
2022-08-01T13:18:45.459Z,2.20